createdAt,value
2023-03-26T00:00:19.452Z,11.10
2023-03-26T00:01:30.033Z,11.09
2023-03-26T00:02:41.293Z,11.09
2023-03-26T00:03:56.587Z,11.03
2023-03-26T00:05:02.885Z,10.98
2023-03-26T00:06:10.768Z,11.01
2023-03-26T00:07:15.461Z,11.00
2023-03-26T00:08:19.136Z,10.95
2023-03-26T00:09:23.411Z,10.91
2023-03-26T00:10:27.815Z,10.92
2023-03-26T00:11:31.922Z,10.91
2023-03-26T00:12:39.481Z,10.93
2023-03-26T00:13:45.135Z,10.94
2023-03-26T00:14:48.882Z,10.94
2023-03-26T00:15:53.423Z,10.93
2023-03-26T00:16:58.125Z,10.90
2023-03-26T00:18:02.824Z,10.91
2023-03-26T00:19:06.766Z,10.90
2023-03-26T00:20:11.300Z,10.93
2023-03-26T00:21:20.935Z,10.94
2023-03-26T00:22:24.927Z,10.92
2023-03-26T00:23:31.272Z,10.97
2023-03-26T00:24:37.646Z,10.94
2023-03-26T00:25:44.629Z,10.96
2023-03-26T00:27:01.622Z,10.94
2023-03-26T00:28:08.234Z,10.97
2023-03-26T00:29:14.046Z,11.01
2023-03-26T00:30:29.971Z,10.96
2023-03-26T00:31:35.868Z,10.97
2023-03-26T00:32:39.841Z,10.97
2023-03-26T00:33:45.427Z,11.00
2023-03-26T00:35:08.880Z,11.04
2023-03-26T00:36:17.760Z,11.06
2023-03-26T00:37:26.885Z,11.04
2023-03-26T00:38:33.823Z,11.03
2023-03-26T00:39:39.549Z,11.00
2023-03-26T00:40:48.216Z,11.03
2023-03-26T00:41:54.870Z,10.98
2023-03-26T00:43:18.998Z,10.98
2023-03-26T00:44:23.696Z,10.99
2023-03-26T00:45:30.501Z,11.03
2023-03-26T00:46:37.559Z,10.96
2023-03-26T00:47:46.765Z,10.97
2023-03-26T00:48:50.955Z,10.96
2023-03-26T00:49:56.206Z,10.99
2023-03-26T00:51:01.937Z,11.04
2023-03-26T00:52:09.075Z,11.03
2023-03-26T00:53:15.360Z,11.00
2023-03-26T00:54:19.548Z,10.95
2023-03-26T00:55:23.556Z,10.95
2023-03-26T00:56:27.443Z,10.92
2023-03-26T00:57:35.990Z,10.88
2023-03-26T00:58:40.895Z,10.94
2023-03-26T00:59:44.605Z,10.95
2023-03-26T01:00:59.074Z,10.97
2023-03-26T01:02:04.416Z,10.97
2023-03-26T01:03:26.670Z,10.98
2023-03-26T01:05:04.361Z,10.91
2023-03-26T01:06:22.417Z,10.91
2023-03-26T01:07:29.135Z,10.91
2023-03-26T01:08:45.363Z,10.92
2023-03-26T01:09:58.554Z,10.91
2023-03-26T01:11:18.296Z,10.96
2023-03-26T01:12:26.963Z,11.00
2023-03-26T01:13:37.305Z,11.01
2023-03-26T01:14:41.896Z,11.02
2023-03-26T01:15:51.216Z,10.96
2023-03-26T01:17:03.069Z,11.01
2023-03-26T01:18:14.818Z,10.98
2023-03-26T01:20:16.072Z,10.91
2023-03-26T01:21:30.363Z,10.90
2023-03-26T01:22:37.858Z,10.91
2023-03-26T01:23:57.685Z,10.95
2023-03-26T01:25:01.856Z,10.94
2023-03-26T01:26:58.259Z,10.96
2023-03-26T01:28:04.012Z,10.94
2023-03-26T01:29:49.059Z,11.01
2023-03-26T01:31:11.747Z,11.00
2023-03-26T01:33:16.356Z,10.95
2023-03-26T01:35:03.019Z,10.94
2023-03-26T01:36:17.319Z,10.94
2023-03-26T01:37:28.392Z,10.88
2023-03-26T01:39:06.680Z,10.85
2023-03-26T01:40:43.156Z,10.79
2023-03-26T01:41:58.620Z,10.73
2023-03-26T01:43:19.882Z,10.74
2023-03-26T01:44:34.739Z,10.66
2023-03-26T01:45:44.888Z,10.59
2023-03-26T01:46:51.257Z,10.60
2023-03-26T01:47:56.856Z,10.62
2023-03-26T01:49:02.477Z,10.56
2023-03-26T01:50:15.937Z,10.54
2023-03-26T01:51:36.075Z,10.54
2023-03-26T01:52:41.350Z,10.56
2023-03-26T01:53:48.802Z,10.43
2023-03-26T01:54:58.063Z,10.44
2023-03-26T01:56:38.173Z,10.51
2023-03-26T01:58:21.683Z,10.43
2023-03-26T02:00:03.300Z,10.42
2023-03-26T02:02:09.494Z,10.43
2023-03-26T02:03:28.845Z,10.50
2023-03-26T02:04:57.912Z,10.47
2023-03-26T02:06:26.581Z,10.43
2023-03-26T02:07:56.243Z,10.40
2023-03-26T02:09:09.417Z,10.32
2023-03-26T02:10:37.043Z,10.39
2023-03-26T02:11:41.938Z,10.43
2023-03-26T02:12:46.413Z,10.44
2023-03-26T02:13:52.455Z,10.49
2023-03-26T02:14:59.058Z,10.49
2023-03-26T02:16:08.069Z,10.49
2023-03-26T02:17:12.406Z,10.51
2023-03-26T02:18:16.294Z,10.52
2023-03-26T02:19:30.960Z,10.46
2023-03-26T02:20:37.737Z,10.47
2023-03-26T02:21:46.207Z,10.40
2023-03-26T02:22:50.474Z,10.39
2023-03-26T02:24:03.034Z,10.36
2023-03-26T02:25:18.339Z,10.38
2023-03-26T02:26:33.879Z,10.42
2023-03-26T02:27:39.668Z,10.39
2023-03-26T02:28:43.669Z,10.40
2023-03-26T02:29:47.953Z,10.41
2023-03-26T02:30:57.867Z,10.39
2023-03-26T02:32:07.214Z,10.36
2023-03-26T02:33:19.128Z,10.38
2023-03-26T02:34:23.284Z,10.39
2023-03-26T02:35:33.274Z,10.41
2023-03-26T02:36:44.566Z,10.43
2023-03-26T02:37:55.281Z,10.45
2023-03-26T02:39:00.407Z,10.45
2023-03-26T02:40:11.989Z,10.47
2023-03-26T02:41:16.115Z,10.44
2023-03-26T02:42:21.699Z,10.45
2023-03-26T02:43:25.771Z,10.46
2023-03-26T02:44:30.002Z,10.49
2023-03-26T02:45:34.300Z,10.49
2023-03-26T02:46:38.536Z,10.53
2023-03-26T02:47:51.010Z,10.56
2023-03-26T02:48:54.876Z,10.52
2023-03-26T02:50:01.612Z,10.52
2023-03-26T02:51:14.715Z,10.52
2023-03-26T02:52:19.006Z,10.53
2023-03-26T02:53:24.356Z,10.54
2023-03-26T02:54:28.811Z,10.52
2023-03-26T02:55:32.654Z,10.53
2023-03-26T02:56:39.115Z,10.53
2023-03-26T02:57:46.990Z,10.50
2023-03-26T02:58:51.494Z,10.54
2023-03-26T03:00:13.545Z,10.53
2023-03-26T03:01:22.214Z,10.49
2023-03-26T03:02:29.551Z,10.47
2023-03-26T03:03:34.776Z,10.52
2023-03-26T03:04:38.600Z,10.53
2023-03-26T03:05:43.419Z,10.56
2023-03-26T03:06:47.349Z,10.57
2023-03-26T03:07:51.448Z,10.62
2023-03-26T03:08:55.953Z,10.63
2023-03-26T03:10:04.331Z,10.62
2023-03-26T03:11:24.880Z,10.67
2023-03-26T03:12:28.910Z,10.66
2023-03-26T03:13:32.769Z,10.64
2023-03-26T03:14:42.946Z,10.63
2023-03-26T03:15:47.792Z,10.58
2023-03-26T03:16:57.955Z,10.61
2023-03-26T03:18:02.499Z,10.60
2023-03-26T03:19:10.087Z,10.63
2023-03-26T03:20:14.449Z,10.64
2023-03-26T03:21:18.210Z,10.67
2023-03-26T03:22:28.738Z,10.70
2023-03-26T03:23:32.815Z,10.70
2023-03-26T03:24:36.737Z,10.73
2023-03-26T03:25:41.378Z,10.75
2023-03-26T03:27:00.124Z,10.75
2023-03-26T03:28:15.400Z,10.73
2023-03-26T03:29:25.060Z,10.74
2023-03-26T03:30:44.893Z,10.79
2023-03-26T03:31:55.730Z,10.81
2023-03-26T03:33:03.869Z,10.80
2023-03-26T03:34:19.404Z,10.80
2023-03-26T03:35:23.489Z,10.82
2023-03-26T03:37:01.414Z,10.82
2023-03-26T03:38:06.990Z,10.84
2023-03-26T03:39:16.017Z,10.83
2023-03-26T03:40:20.571Z,10.87
2023-03-26T03:41:24.621Z,10.91
2023-03-26T03:42:28.446Z,10.94
2023-03-26T03:43:32.955Z,10.93
2023-03-26T03:44:40.028Z,10.94
2023-03-26T03:45:45.689Z,10.94
2023-03-26T03:46:54.053Z,10.94
2023-03-26T03:47:58.685Z,10.94
2023-03-26T03:49:03.630Z,10.98
2023-03-26T03:50:16.605Z,10.97
2023-03-26T03:51:21.102Z,10.95
2023-03-26T03:52:24.997Z,10.86
2023-03-26T03:53:29.110Z,10.86
2023-03-26T03:54:33.485Z,10.86
2023-03-26T03:55:38.357Z,10.85
2023-03-26T03:56:42.706Z,10.88
2023-03-26T03:57:46.890Z,10.91
2023-03-26T03:58:51.881Z,10.93
2023-03-26T03:59:58.573Z,10.95
2023-03-26T04:01:04.487Z,10.77
2023-03-26T04:02:13.629Z,10.74
2023-03-26T04:03:19.878Z,10.72
2023-03-26T04:04:38.390Z,10.75
2023-03-26T04:05:44.145Z,10.80
2023-03-26T04:06:47.817Z,10.80
2023-03-26T04:07:51.732Z,10.76
2023-03-26T04:08:58.498Z,10.80
2023-03-26T04:10:17.717Z,10.78
2023-03-26T04:11:21.746Z,10.74
2023-03-26T04:12:30.004Z,10.73
2023-03-26T04:13:37.483Z,10.74
2023-03-26T04:14:41.730Z,10.75
2023-03-26T04:15:45.633Z,10.77
2023-03-26T04:16:49.759Z,10.76
2023-03-26T04:17:54.010Z,10.77
2023-03-26T04:18:58.356Z,10.80
2023-03-26T04:20:13.982Z,10.80
2023-03-26T04:21:17.865Z,10.77
2023-03-26T04:22:23.609Z,10.75
2023-03-26T04:23:29.160Z,10.78
2023-03-26T04:24:42.428Z,10.80
2023-03-26T04:25:53.973Z,10.82
2023-03-26T04:27:01.196Z,10.84
2023-03-26T04:28:20.141Z,10.85
2023-03-26T04:29:28.011Z,10.82
2023-03-26T04:30:31.997Z,10.86
2023-03-26T04:31:36.447Z,10.82
2023-03-26T04:32:40.780Z,10.86
2023-03-26T04:33:48.751Z,10.84
2023-03-26T04:34:53.793Z,10.87
2023-03-26T04:36:02.836Z,10.89
2023-03-26T04:37:32.463Z,10.86
2023-03-26T04:38:43.574Z,10.86
2023-03-26T04:39:47.620Z,10.88
2023-03-26T04:40:52.158Z,10.90
2023-03-26T04:41:57.961Z,10.90
2023-03-26T04:43:03.789Z,10.90
2023-03-26T04:44:14.411Z,10.91
2023-03-26T04:45:23.058Z,10.91
2023-03-26T04:46:26.979Z,10.92
2023-03-26T04:47:30.949Z,10.92
2023-03-26T04:48:34.968Z,10.91
2023-03-26T04:49:39.176Z,10.90
2023-03-26T04:50:45.507Z,10.92
2023-03-26T04:51:49.567Z,10.93
2023-03-26T04:53:02.526Z,10.92
2023-03-26T04:54:16.788Z,10.78
2023-03-26T04:55:42.228Z,10.78
2023-03-26T04:57:00.353Z,10.80
2023-03-26T04:58:07.385Z,10.78
2023-03-26T04:59:33.396Z,10.80
2023-03-26T05:00:37.873Z,10.78
2023-03-26T05:01:46.199Z,10.76
2023-03-26T05:02:50.769Z,10.71
2023-03-26T05:03:57.421Z,10.75
2023-03-26T05:05:03.171Z,10.78
2023-03-26T05:06:17.981Z,10.84
2023-03-26T05:07:24.653Z,10.82
2023-03-26T05:08:29.771Z,10.85
2023-03-26T05:09:33.566Z,10.87
2023-03-26T05:10:42.279Z,10.89
2023-03-26T05:11:48.723Z,10.87
2023-03-26T05:12:52.981Z,10.91
2023-03-26T05:13:57.981Z,10.92
2023-03-26T05:15:03.619Z,10.93
2023-03-26T05:16:14.861Z,10.95
2023-03-26T05:17:27.626Z,10.96
2023-03-26T05:18:32.646Z,10.98
2023-03-26T05:19:37.670Z,11.00
2023-03-26T05:20:42.426Z,11.00
2023-03-26T05:21:46.594Z,11.03
2023-03-26T05:22:51.116Z,10.99
2023-03-26T05:23:55.024Z,11.04
2023-03-26T05:24:58.998Z,11.01
2023-03-26T05:26:03.133Z,11.07
2023-03-26T05:27:20.256Z,11.11
2023-03-26T05:28:25.616Z,11.08
2023-03-26T05:29:29.392Z,11.15
2023-03-26T05:30:33.410Z,11.19
2023-03-26T05:31:37.991Z,11.22
2023-03-26T05:32:44.009Z,11.22
2023-03-26T05:33:48.983Z,11.25
2023-03-26T05:34:52.793Z,11.27
2023-03-26T05:36:03.710Z,11.28
2023-03-26T05:37:17.945Z,11.30
2023-03-26T05:38:21.753Z,11.25
2023-03-26T05:39:27.063Z,11.25
2023-03-26T05:40:31.203Z,11.25
2023-03-26T05:41:35.698Z,11.24
2023-03-26T05:42:40.682Z,11.23
2023-03-26T05:43:49.145Z,11.24
2023-03-26T05:44:52.862Z,11.25
2023-03-26T05:45:58.918Z,11.26
2023-03-26T05:47:08.941Z,11.23
2023-03-26T05:48:15.895Z,11.22
2023-03-26T05:49:19.636Z,11.23
2023-03-26T05:50:24.806Z,11.23
2023-03-26T05:51:28.409Z,11.24
2023-03-26T05:52:35.025Z,11.19
2023-03-26T05:53:39.093Z,11.12
2023-03-26T05:54:43.768Z,11.17
2023-03-26T05:55:58.111Z,11.20
2023-03-26T05:57:02.856Z,11.22
2023-03-26T05:58:14.356Z,11.22
2023-03-26T05:59:19.150Z,11.23
2023-03-26T06:00:24.340Z,11.26
2023-03-26T06:01:29.442Z,11.29
2023-03-26T06:02:34.050Z,11.27
2023-03-26T06:03:40.226Z,11.24
2023-03-26T06:04:46.070Z,11.22
2023-03-26T06:05:50.351Z,11.22
2023-03-26T06:06:54.386Z,11.24
2023-03-26T06:07:58.076Z,11.26
2023-03-26T06:09:03.044Z,11.21
2023-03-26T06:10:20.588Z,11.13
2023-03-26T06:11:24.932Z,11.09
2023-03-26T06:12:28.674Z,11.13
2023-03-26T06:13:32.458Z,11.15
2023-03-26T06:14:43.065Z,11.13
2023-03-26T06:15:47.010Z,11.11
2023-03-26T06:16:50.688Z,11.10
2023-03-26T06:17:54.396Z,11.08
2023-03-26T06:18:58.811Z,11.10
2023-03-26T06:20:12.284Z,11.11
2023-03-26T06:21:19.040Z,11.10
2023-03-26T06:22:23.706Z,11.12
2023-03-26T06:23:28.029Z,11.17
2023-03-26T06:24:33.648Z,11.17
2023-03-26T06:25:38.348Z,11.19
2023-03-26T06:26:43.008Z,11.19
2023-03-26T06:27:46.757Z,11.21
2023-03-26T06:28:50.518Z,11.26
2023-03-26T06:29:54.830Z,11.23
2023-03-26T06:31:01.812Z,11.22
2023-03-26T06:32:20.057Z,11.23
2023-03-26T06:33:26.092Z,11.24
2023-03-26T06:34:29.974Z,11.23
2023-03-26T06:35:33.633Z,11.24
2023-03-26T06:36:37.732Z,11.29
2023-03-26T06:37:42.436Z,11.26
2023-03-26T06:38:46.093Z,11.26
2023-03-26T06:39:49.878Z,11.29
2023-03-26T06:40:53.949Z,11.26
2023-03-26T06:41:57.927Z,11.28
2023-03-26T06:43:08.874Z,11.30
2023-03-26T06:44:14.488Z,11.35
2023-03-26T06:45:19.079Z,11.37
2023-03-26T06:46:23.753Z,11.41
2023-03-26T06:47:27.681Z,11.44
2023-03-26T06:48:32.556Z,11.43
2023-03-26T06:49:38.472Z,11.46
2023-03-26T06:50:45.436Z,11.51
2023-03-26T06:51:49.181Z,11.57
2023-03-26T06:53:00.428Z,11.56
2023-03-26T06:54:07.147Z,11.59
2023-03-26T06:55:15.623Z,11.52
2023-03-26T06:56:19.707Z,11.57
2023-03-26T06:57:23.714Z,11.53
2023-03-26T06:58:27.547Z,11.49
2023-03-26T06:59:32.120Z,11.49
2023-03-26T07:00:39.347Z,11.49
2023-03-26T07:01:47.514Z,11.50
2023-03-26T07:02:51.376Z,11.53
2023-03-26T07:03:55.572Z,11.56
2023-03-26T07:05:04.381Z,11.62
2023-03-26T07:06:13.313Z,11.59
2023-03-26T07:07:18.603Z,11.64
2023-03-26T07:08:25.090Z,11.68
2023-03-26T07:09:33.853Z,11.74
2023-03-26T07:10:38.101Z,11.77
2023-03-26T07:11:41.825Z,11.82
2023-03-26T07:12:46.324Z,11.89
2023-03-26T07:13:50.535Z,11.95
2023-03-26T07:14:54.516Z,11.97
2023-03-26T07:15:59.224Z,11.93
2023-03-26T07:17:03.676Z,11.95
2023-03-26T07:18:20.046Z,11.98
2023-03-26T07:19:24.244Z,12.03
2023-03-26T07:20:28.409Z,12.07
2023-03-26T07:21:32.778Z,12.10
2023-03-26T07:22:39.912Z,12.18
2023-03-26T07:23:44.610Z,12.21
2023-03-26T07:24:49.487Z,12.21
2023-03-26T07:25:54.218Z,12.21
2023-03-26T07:27:31.933Z,12.27
2023-03-26T07:29:03.776Z,12.29
2023-03-26T07:30:49.466Z,12.30
2023-03-26T07:32:12.362Z,12.34
2023-03-26T07:33:42.798Z,12.41
2023-03-26T07:35:02.136Z,12.57
2023-03-26T07:36:33.799Z,12.76
2023-03-26T07:38:44.298Z,13.16
2023-03-26T07:40:28.662Z,13.92
2023-03-26T07:41:57.219Z,14.90
2023-03-26T07:43:54.950Z,15.93
2023-03-26T07:45:14.080Z,16.90
2023-03-26T07:46:31.972Z,17.64
2023-03-26T07:47:37.463Z,18.26
2023-03-26T07:48:50.203Z,19.06
2023-03-26T07:49:58.020Z,19.45
2023-03-26T07:51:03.618Z,19.69
2023-03-26T07:52:16.292Z,19.85
2023-03-26T07:53:21.464Z,20.06
2023-03-26T07:54:25.713Z,20.12
2023-03-26T07:55:31.611Z,20.33
2023-03-26T07:57:02.177Z,20.79
2023-03-26T07:58:15.519Z,20.93
2023-03-26T07:59:51.569Z,20.89
2023-03-26T08:01:26.525Z,21.35
2023-03-26T08:02:58.048Z,21.00
2023-03-26T08:04:24.903Z,20.83
2023-03-26T08:06:14.762Z,20.29
2023-03-26T08:07:37.822Z,19.70
2023-03-26T08:09:12.072Z,19.69
2023-03-26T08:10:29.530Z,19.59
2023-03-26T08:12:13.436Z,19.70
2023-03-26T08:13:35.348Z,19.79
2023-03-26T08:15:12.974Z,19.84
2023-03-26T08:16:36.968Z,19.86
2023-03-26T08:18:38.975Z,20.33
2023-03-26T08:20:33.187Z,20.11
2023-03-26T08:22:26.705Z,19.75
2023-03-26T08:23:50.860Z,19.17
2023-03-26T08:25:34.429Z,18.63
2023-03-26T08:27:03.047Z,18.36
2023-03-26T08:29:02.361Z,17.60
2023-03-26T08:30:16.299Z,17.16
2023-03-26T08:31:33.577Z,16.93
2023-03-26T08:32:37.996Z,16.68
2023-03-26T08:33:42.588Z,16.32
2023-03-26T08:34:57.849Z,16.07
2023-03-26T08:36:01.488Z,15.83
2023-03-26T08:37:07.591Z,15.69
2023-03-26T08:38:16.024Z,15.48
2023-03-26T08:39:22.403Z,15.40
2023-03-26T08:41:03.013Z,15.44
2023-03-26T08:42:57.479Z,15.79
2023-03-26T08:44:57.375Z,15.93
2023-03-26T08:46:30.621Z,15.91
2023-03-26T08:48:19.911Z,15.71
2023-03-26T08:49:55.859Z,15.59
2023-03-26T08:51:29.907Z,15.24
2023-03-26T08:53:24.822Z,15.16
2023-03-26T08:54:49.927Z,15.04
2023-03-26T08:56:42.644Z,14.89
2023-03-26T08:58:36.235Z,14.83
2023-03-26T09:00:17.607Z,14.92
2023-03-26T09:02:14.487Z,15.45
2023-03-26T09:03:58.866Z,16.48
2023-03-26T09:05:47.503Z,17.07
2023-03-26T09:07:25.579Z,17.55
2023-03-26T09:09:19.135Z,17.78
2023-03-26T09:10:35.826Z,18.30
2023-03-26T09:12:02.011Z,18.69
2023-03-26T09:13:39.840Z,19.28
2023-03-26T09:14:58.408Z,19.39
2023-03-26T09:16:26.608Z,19.46
2023-03-26T09:18:17.073Z,19.21
2023-03-26T09:19:58.447Z,18.98
2023-03-26T09:21:28.944Z,18.87
2023-03-26T09:23:25.465Z,18.43
2023-03-26T09:24:57.404Z,17.84
2023-03-26T09:26:11.751Z,17.50
2023-03-26T09:27:39.480Z,17.01
2023-03-26T09:29:20.676Z,16.88
2023-03-26T09:30:57.472Z,16.54
2023-03-26T09:32:34.893Z,16.39
2023-03-26T09:34:55.020Z,16.23
2023-03-26T09:36:01.895Z,16.09
2023-03-26T09:38:01.512Z,15.94
2023-03-26T09:39:41.745Z,15.73
2023-03-26T09:41:44.131Z,15.44
2023-03-26T09:43:29.061Z,15.32
2023-03-26T09:44:47.919Z,15.33
2023-03-26T09:46:17.681Z,15.27
2023-03-26T09:47:58.467Z,15.27
2023-03-26T09:49:44.880Z,15.30
2023-03-26T09:51:16.996Z,15.27
2023-03-26T09:53:10.574Z,15.21
2023-03-26T09:54:28.796Z,15.12
2023-03-26T09:56:00.578Z,15.04
2023-03-26T09:57:25.110Z,14.97
2023-03-26T09:59:13.704Z,14.86
2023-03-26T10:00:29.244Z,14.76
2023-03-26T10:02:11.794Z,14.76
2023-03-26T10:03:28.358Z,14.69
2023-03-26T10:04:47.285Z,14.67
2023-03-26T10:06:17.395Z,14.64
2023-03-26T10:07:36.787Z,14.60
2023-03-26T10:08:51.615Z,14.57
2023-03-26T10:10:20.738Z,14.53
2023-03-26T10:11:55.205Z,14.47
2023-03-26T10:13:26.297Z,14.39
2023-03-26T10:14:53.679Z,14.38
2023-03-26T10:16:33.172Z,14.34
2023-03-26T10:18:27.342Z,14.39
2023-03-26T10:19:53.276Z,14.34
2023-03-26T10:21:28.064Z,14.36
2023-03-26T10:23:14.272Z,14.34
2023-03-26T10:24:29.949Z,14.34
2023-03-26T10:26:12.734Z,14.30
2023-03-26T10:27:26.796Z,14.27
2023-03-26T10:29:20.891Z,14.26
2023-03-26T10:31:12.158Z,14.27
2023-03-26T10:32:59.292Z,14.27
2023-03-26T10:34:50.013Z,14.29
2023-03-26T10:36:15.204Z,14.33
2023-03-26T10:38:16.317Z,14.32
2023-03-26T10:39:51.183Z,14.25
2023-03-26T10:41:33.252Z,14.27
2023-03-26T10:43:01.284Z,14.26
2023-03-26T10:44:32.127Z,14.27
2023-03-26T10:45:54.516Z,14.29
2023-03-26T10:47:16.797Z,14.27
2023-03-26T10:49:08.526Z,14.38
2023-03-26T10:50:59.111Z,14.43
2023-03-26T10:52:21.105Z,14.47
2023-03-26T10:53:51.451Z,14.53
2023-03-26T10:55:47.235Z,14.51
2023-03-26T10:56:55.533Z,14.57
2023-03-26T10:58:46.086Z,14.59
2023-03-26T11:00:12.894Z,14.60
2023-03-26T11:01:54.626Z,14.55
2023-03-26T11:03:36.397Z,14.59
2023-03-26T11:05:19.821Z,14.54
2023-03-26T11:07:19.201Z,14.55
2023-03-26T11:08:46.900Z,14.56
2023-03-26T11:10:18.932Z,14.53
2023-03-26T11:11:30.860Z,14.48
2023-03-26T11:12:57.970Z,14.52
2023-03-26T11:14:46.558Z,14.54
2023-03-26T11:16:01.649Z,14.52
2023-03-26T11:17:46.427Z,14.52
2023-03-26T11:19:12.285Z,14.53
2023-03-26T11:20:46.118Z,14.58
2023-03-26T11:22:17.730Z,14.65
2023-03-26T11:23:37.162Z,14.73
2023-03-26T11:25:15.571Z,14.78
2023-03-26T11:26:55.843Z,14.82
2023-03-26T11:28:30.403Z,14.83
2023-03-26T11:29:55.623Z,14.91
2023-03-26T11:31:51.658Z,14.96
2023-03-26T11:33:02.488Z,15.01
2023-03-26T11:34:26.100Z,14.97
2023-03-26T11:35:41.065Z,14.93
2023-03-26T11:36:57.805Z,14.84
2023-03-26T11:38:21.919Z,14.82
2023-03-26T11:39:56.762Z,14.73
2023-03-26T11:41:04.102Z,14.69
2023-03-26T11:42:22.981Z,14.63
2023-03-26T11:43:35.380Z,14.62
2023-03-26T11:45:12.911Z,14.64
2023-03-26T11:46:22.472Z,14.66
2023-03-26T11:48:15.179Z,14.64
2023-03-26T11:49:23.933Z,14.60
2023-03-26T11:50:33.433Z,14.64
2023-03-26T11:51:41.600Z,14.64
2023-03-26T11:52:47.100Z,14.64
2023-03-26T11:53:51.186Z,14.58
2023-03-26T11:54:58.673Z,14.63
2023-03-26T11:57:05.435Z,14.68
2023-03-26T11:58:39.204Z,14.68
2023-03-26T12:00:09.736Z,14.74
2023-03-26T12:01:30.581Z,14.77
2023-03-26T12:02:42.332Z,14.80
2023-03-26T12:04:14.809Z,14.83
2023-03-26T12:05:26.747Z,14.82
2023-03-26T12:06:33.166Z,14.90
2023-03-26T12:07:42.278Z,14.91
2023-03-26T12:08:47.490Z,14.83
2023-03-26T12:09:54.509Z,14.85
2023-03-26T12:11:14.609Z,14.78
2023-03-26T12:12:20.267Z,14.79
2023-03-26T12:14:10.224Z,14.76
2023-03-26T12:15:20.103Z,14.84
2023-03-26T12:16:24.099Z,14.86
2023-03-26T12:17:35.552Z,14.89
2023-03-26T12:18:44.084Z,14.99
2023-03-26T12:19:52.045Z,15.00
2023-03-26T12:21:15.019Z,15.07
2023-03-26T12:22:37.931Z,15.07
2023-03-26T12:24:14.409Z,15.11
2023-03-26T12:25:24.912Z,15.13
2023-03-26T12:26:49.036Z,15.11
2023-03-26T12:28:13.701Z,15.11
2023-03-26T12:29:20.527Z,15.08
2023-03-26T12:30:58.359Z,15.07
2023-03-26T12:32:15.218Z,15.04
2023-03-26T12:33:34.678Z,15.08
2023-03-26T12:34:40.262Z,15.07
2023-03-26T12:35:44.527Z,15.06
2023-03-26T12:37:01.983Z,15.11
2023-03-26T12:38:33.601Z,15.17
2023-03-26T12:40:06.919Z,15.16
2023-03-26T12:43:40.262Z,15.16
2023-03-26T12:44:54.973Z,15.19
2023-03-26T12:44:59.170Z,15.23
2023-03-26T12:47:46.120Z,15.28
2023-03-26T12:47:57.823Z,15.35
2023-03-26T12:49:22.540Z,15.37
2023-03-26T12:50:58.072Z,15.41
2023-03-26T12:52:46.367Z,15.39
2023-03-26T12:54:33.953Z,15.38
2023-03-26T12:56:15.825Z,15.35
2023-03-26T12:57:24.870Z,15.38
2023-03-26T12:58:51.562Z,15.37
2023-03-26T13:00:24.338Z,15.42
2023-03-26T13:01:34.776Z,15.48
2023-03-26T13:03:18.818Z,15.52
2023-03-26T13:05:04.922Z,15.51
2023-03-26T13:06:59.141Z,15.48
2023-03-26T13:08:39.512Z,15.44
2023-03-26T13:09:58.336Z,15.37
2023-03-26T13:11:14.257Z,15.41
2023-03-26T13:12:46.818Z,15.38
2023-03-26T13:13:58.937Z,15.35
2023-03-26T13:15:43.491Z,15.30
2023-03-26T13:17:13.503Z,15.27
2023-03-26T13:18:50.174Z,15.26
2023-03-26T13:20:12.545Z,15.26
2023-03-26T13:21:57.478Z,15.23
2023-03-26T13:24:03.456Z,15.23
2023-03-26T13:25:43.752Z,15.25
2023-03-26T13:27:03.641Z,15.32
2023-03-26T13:28:25.684Z,15.42
2023-03-26T13:30:03.233Z,15.50
2023-03-26T13:31:22.041Z,15.49
2023-03-26T13:32:49.462Z,15.49
2023-03-26T13:34:24.015Z,15.44
2023-03-26T13:35:52.604Z,15.44
2023-03-26T13:37:38.641Z,15.42
2023-03-26T13:39:14.490Z,15.41
2023-03-26T13:41:05.648Z,15.42
2023-03-26T13:42:29.223Z,15.49
2023-03-26T13:43:43.901Z,15.55
2023-03-26T13:45:19.190Z,15.61
2023-03-26T13:46:36.148Z,15.65
2023-03-26T13:47:49.332Z,15.71
2023-03-26T13:49:15.698Z,15.69
2023-03-26T13:50:37.670Z,15.68
2023-03-26T13:52:12.135Z,15.70
2023-03-26T13:53:27.432Z,15.73
2023-03-26T13:54:48.576Z,15.71
2023-03-26T13:56:00.168Z,15.68
2023-03-26T13:57:29.868Z,15.69
2023-03-26T13:58:49.077Z,15.74
2023-03-26T14:00:21.974Z,15.75
2023-03-26T14:01:57.537Z,15.78
2023-03-26T14:03:19.260Z,15.78
2023-03-26T14:04:47.852Z,15.72
2023-03-26T14:05:58.807Z,15.70
2023-03-26T14:07:23.639Z,15.65
2023-03-26T14:08:44.379Z,15.67
2023-03-26T14:10:10.155Z,15.62
2023-03-26T14:12:21.428Z,15.57
2023-03-26T14:14:27.644Z,15.54
2023-03-26T14:15:47.271Z,15.50
2023-03-26T14:17:02.408Z,15.48
2023-03-26T14:18:27.196Z,15.55
2023-03-26T14:20:23.928Z,15.54
2023-03-26T14:22:14.928Z,15.56
2023-03-26T14:24:08.071Z,15.59
2023-03-26T14:25:43.362Z,15.59
2023-03-26T14:26:56.314Z,15.58
2023-03-26T14:28:21.541Z,15.60
2023-03-26T14:29:38.238Z,15.57
2023-03-26T14:31:04.303Z,15.54
2023-03-26T14:32:49.462Z,15.50
2023-03-26T14:34:31.344Z,15.52
2023-03-26T14:36:01.429Z,15.44
2023-03-26T14:37:35.777Z,15.38
2023-03-26T14:39:58.338Z,15.30
2023-03-26T14:41:42.304Z,15.25
2023-03-26T14:43:35.084Z,15.23
2023-03-26T14:44:49.096Z,15.18
2023-03-26T14:46:34.550Z,15.17
2023-03-26T14:48:11.732Z,15.12
2023-03-26T14:49:40.851Z,15.11
2023-03-26T14:50:57.063Z,15.12
2023-03-26T14:52:45.087Z,15.09
2023-03-26T14:53:59.216Z,15.06
2023-03-26T14:56:04.205Z,15.03
2023-03-26T14:58:14.966Z,14.97
2023-03-26T15:00:02.256Z,14.99
2023-03-26T15:01:28.342Z,14.95
2023-03-26T15:03:25.057Z,14.98
2023-03-26T15:05:15.850Z,15.00
2023-03-26T15:06:25.344Z,14.99
2023-03-26T15:08:02.362Z,14.96
2023-03-26T15:10:02.665Z,14.99
2023-03-26T15:11:48.333Z,14.98
2023-03-26T15:13:31.376Z,15.00
2023-03-26T15:14:45.377Z,14.99
2023-03-26T15:16:19.569Z,15.00
2023-03-26T15:18:13.987Z,14.99
2023-03-26T15:20:15.609Z,14.98
2023-03-26T15:22:15.694Z,14.95
2023-03-26T15:23:43.608Z,14.95
2023-03-26T15:25:23.620Z,14.98
2023-03-26T15:26:37.221Z,14.99
2023-03-26T15:27:57.635Z,14.99
2023-03-26T15:29:24.136Z,15.03
2023-03-26T15:30:48.958Z,15.04
2023-03-26T15:32:22.492Z,15.01
2023-03-26T15:34:36.121Z,15.06
2023-03-26T15:36:12.601Z,15.03
2023-03-26T15:37:31.632Z,14.98
2023-03-26T15:39:44.252Z,14.96
2023-03-26T15:41:22.240Z,14.97
2023-03-26T15:42:55.639Z,14.97
2023-03-26T15:45:35.592Z,14.98
2023-03-26T15:46:58.542Z,14.98
2023-03-26T15:48:14.275Z,14.99
2023-03-26T15:49:43.875Z,15.01
2023-03-26T15:51:01.243Z,14.97
2023-03-26T15:52:28.744Z,14.97
2023-03-26T15:53:53.135Z,14.98
2023-03-26T15:55:26.575Z,14.99
2023-03-26T15:56:58.176Z,14.99
2023-03-26T15:58:39.496Z,14.99
2023-03-26T16:00:15.447Z,14.94
2023-03-26T16:01:51.651Z,14.90
2023-03-26T16:03:10.987Z,14.91
2023-03-26T16:04:50.793Z,14.88
2023-03-26T16:06:20.196Z,14.91
2023-03-26T16:08:02.958Z,14.86
2023-03-26T16:09:39.150Z,14.89
2023-03-26T16:10:59.759Z,14.85
2023-03-26T16:12:50.684Z,14.80
2023-03-26T16:14:44.519Z,14.82
2023-03-26T16:16:04.421Z,14.80
2023-03-26T16:17:23.506Z,14.83
2023-03-26T16:19:15.786Z,14.84
2023-03-26T16:21:32.177Z,14.85
2023-03-26T16:23:00.874Z,14.84
2023-03-26T16:24:25.117Z,14.78
2023-03-26T16:25:35.561Z,14.78
2023-03-26T16:26:51.746Z,14.80
2023-03-26T16:28:17.219Z,14.81
2023-03-26T16:29:25.917Z,14.81
2023-03-26T16:30:32.845Z,14.79
2023-03-26T16:31:39.407Z,14.83
2023-03-26T16:32:56.471Z,14.84
2023-03-26T16:34:12.957Z,14.81
2023-03-26T16:35:40.518Z,14.77
2023-03-26T16:36:54.409Z,14.77
2023-03-26T16:38:15.531Z,14.75
2023-03-26T16:39:24.900Z,14.75
2023-03-26T16:41:54.249Z,14.77
2023-03-26T16:43:26.888Z,14.75
2023-03-26T16:44:55.277Z,14.69
2023-03-26T16:46:32.277Z,14.70
2023-03-26T16:48:16.130Z,14.64
2023-03-26T16:49:46.047Z,14.67
2023-03-26T16:51:22.046Z,14.60
2023-03-26T16:53:04.470Z,14.58
2023-03-26T16:55:18.120Z,14.53
2023-03-26T16:56:45.294Z,14.54
2023-03-26T16:58:38.292Z,14.53
2023-03-26T17:00:24.869Z,14.53
2023-03-26T17:01:48.321Z,14.50
2023-03-26T17:03:03.806Z,14.45
2023-03-26T17:04:25.058Z,14.44
2023-03-26T17:05:56.811Z,14.44
2023-03-26T17:07:23.936Z,14.43
2023-03-26T17:08:53.428Z,14.39
2023-03-26T17:10:12.046Z,14.36
2023-03-26T17:11:46.576Z,14.34
2023-03-26T17:13:23.418Z,14.31